Time;durP1;ratioP1;P1;durP2;ratioP2;P2;SDS_P1;SDS_P2;PMS_P1;PMS_P2;Temp;Humidity;BMP_temperature;BMP_pressure;BME280_temperature;BME280_humidity;BME280_pressure;Samples;Min_cycle;Max_cycle;Signal;HPM_P1;HPM_P2
2022/12/19 00:00:41;;;;;;;39.78;23.75;;;;;;;;;;5052323;28;20041;-73
2022/12/19 00:03:07;;;;;;;41.78;25.60;;;;;;;;;;5053037;28;20041;-73
2022/12/19 00:05:40;;;;;;;42.42;25.67;;;;;;;;;;5034016;28;20041;-73
2022/12/19 00:08:12;;;;;;;42.63;26.55;;;;;;;;;;5051202;28;20048;-73
2022/12/19 00:10:38;;;;;;;42.40;25.35;;;;;;;;;;5051674;28;20495;-74
2022/12/19 00:13:04;;;;;;;47.22;27.25;;;;;;;;;;5052004;28;20568;-72
2022/12/19 00:15:30;;;;;;;41.47;23.58;;;;;;;;;;5052044;28;20438;-73
2022/12/19 00:17:56;;;;;;;43.10;25.67;;;;;;;;;;5053287;28;20048;-73
2022/12/19 00:20:22;;;;;;;42.38;25.80;;;;;;;;;;5054553;28;20044;-72
2022/12/19 00:22:48;;;;;;;43.20;26.55;;;;;;;;;;5048969;28;20048;-72
2022/12/19 00:25:14;;;;;;;45.33;26.98;;;;;;;;;;5055133;28;20090;-72
2022/12/19 00:27:40;;;;;;;45.40;25.90;;;;;;;;;;5053946;28;20041;-72
2022/12/19 00:30:07;;;;;;;43.83;25.95;;;;;;;;;;5055462;28;20049;-72
2022/12/19 00:32:33;;;;;;;46.92;26.48;;;;;;;;;;5054423;28;20047;-72
2022/12/19 00:34:59;;;;;;;42.95;27.00;;;;;;;;;;5052224;28;20068;-72
2022/12/19 00:37:25;;;;;;;42.28;25.52;;;;;;;;;;5053896;28;20049;-72
2022/12/19 00:39:51;;;;;;;43.28;25.40;;;;;;;;;;5019241;28;20511;-72
2022/12/19 00:42:17;;;;;;;42.28;26.33;;;;;;;;;;5052807;28;20495;-72
2022/12/19 00:44:43;;;;;;;44.28;27.23;;;;;;;;;;5037654;28;20041;-72
2022/12/19 00:47:09;;;;;;;40.65;25.55;;;;;;;;;;5045303;28;20071;-72
2022/12/19 00:49:35;;;;;;;40.42;24.33;;;;;;;;;;5038082;28;20124;-72
2022/12/19 00:52:02;;;;;;;45.13;25.75;;;;;;;;;;5048599;28;20045;-72
2022/12/19 00:54:28;;;;;;;44.58;25.70;;;;;;;;;;5052832;28;20329;-72
2022/12/19 00:56:54;;;;;;;42.17;25.30;;;;;;;;;;5049648;28;20044;-72
2022/12/19 00:59:20;;;;;;;46.25;26.88;;;;;;;;;;5049246;28;20095;-72
2022/12/19 01:01:46;;;;;;;43.58;26.10;;;;;;;;;;5055820;28;20061;-72
2022/12/19 01:04:13;;;;;;;40.92;25.25;;;;;;;;;;5055343;28;20090;-72
2022/12/19 01:06:39;;;;;;;43.58;25.23;;;;;;;;;;5036037;28;20046;-74
2022/12/19 01:09:05;;;;;;;43.95;25.08;;;;;;;;;;5041189;28;20399;-73
2022/12/19 01:14:16;;;;;;;46.92;27.23;;;;;;;;;;5055791;28;20057;-72
2022/12/19 01:16:42;;;;;;;44.60;26.30;;;;;;;;;;5055797;28;20041;-72
2022/12/19 01:19:08;;;;;;;43.13;25.80;;;;;;;;;;5055722;28;20053;-73
2022/12/19 01:21:35;;;;;;;44.13;25.90;;;;;;;;;;5054449;28;20049;-72
2022/12/19 01:24:02;;;;;;;44.90;25.75;;;;;;;;;;5055685;28;20044;-73
2022/12/19 01:26:28;;;;;;;48.10;27.15;;;;;;;;;;5054815;28;20041;-72
2022/12/19 01:28:54;;;;;;;45.95;26.33;;;;;;;;;;5054685;28;20049;-72
2022/12/19 01:31:21;;;;;;;50.70;28.02;;;;;;;;;;5054565;28;20052;-72
2022/12/19 01:33:47;;;;;;;42.15;22.25;;;;;;;;;;5051288;28;20041;-72
2022/12/19 01:36:13;;;;;;;46.97;26.05;;;;;;;;;;5018281;28;20057;-72
2022/12/19 01:38:39;;;;;;;42.33;25.05;;;;;;;;;;5052132;28;20087;-72
2022/12/19 01:41:05;;;;;;;46.20;26.45;;;;;;;;;;5050974;28;20084;-72
2022/12/19 01:43:33;;;;;;;47.67;27.48;;;;;;;;;;5049418;28;20098;-72
2022/12/19 01:46:04;;;;;;;48.70;27.50;;;;;;;;;;5044244;28;20372;-72
2022/12/19 01:48:42;;;;;;;40.60;23.57;;;;;;;;;;5053591;28;20052;-72
2022/12/19 01:51:34;;;;;;;47.10;26.88;;;;;;;;;;5051009;28;20705;-72
2022/12/19 01:54:04;;;;;;;46.13;25.60;;;;;;;;;;5028080;28;20053;-72
2022/12/19 01:56:34;;;;;;;50.15;25.20;;;;;;;;;;5051294;28;20041;-72
2022/12/19 01:59:02;;;;;;;48.33;26.33;;;;;;;;;;5047460;28;20052;-72
2022/12/19 02:01:28;;;;;;;48.28;28.05;;;;;;;;;;5055034;28;20207;-72
2022/12/19 02:03:56;;;;;;;45.53;26.35;;;;;;;;;;5036696;28;20046;-72
2022/12/19 02:06:22;;;;;;;46.50;26.10;;;;;;;;;;5054563;28;20048;-72
2022/12/19 02:08:48;;;;;;;51.78;27.17;;;;;;;;;;5054962;28;20056;-72
2022/12/19 02:11:14;;;;;;;45.70;27.23;;;;;;;;;;5054889;28;20051;-72
2022/12/19 02:13:41;;;;;;;42.53;24.85;;;;;;;;;;5053933;28;20076;-72
2022/12/19 02:16:45;;;;;;;47.72;27.92;;;;;;;;;;5037127;28;20044;-72
2022/12/19 02:19:17;;;;;;;45.67;25.35;;;;;;;;;;4953868;29;20051;-72
2022/12/19 02:22:02;;;;;;;47.20;27.92;;;;;;;;;;4954570;29;20047;-72
2022/12/19 02:24:40;;;;;;;46.60;26.33;;;;;;;;;;4954463;29;20055;-72
2022/12/19 02:27:25;;;;;;;50.28;27.63;;;;;;;;;;4953530;29;20051;-72
2022/12/19 02:30:12;;;;;;;48.95;27.13;;;;;;;;;;4952683;28;20051;-72
2022/12/19 02:32:48;;;;;;;54.15;28.25;;;;;;;;;;4951624;28;20043;-72
2022/12/19 02:35:22;;;;;;;48.75;28.23;;;;;;;;;;4936533;28;20137;-72
2022/12/19 02:37:52;;;;;;;48.35;27.02;;;;;;;;;;4953748;28;20454;-72
2022/12/19 02:40:23;;;;;;;51.22;27.33;;;;;;;;;;4948823;28;20051;-72
2022/12/19 02:42:53;;;;;;;53.50;28.85;;;;;;;;;;4951900;28;20122;-72
2022/12/19 02:45:20;;;;;;;53.42;28.77;;;;;;;;;;4952948;28;20040;-72
2022/12/19 02:47:47;;;;;;;53.70;28.50;;;;;;;;;;4952215;28;20039;-72
2022/12/19 02:50:13;;;;;;;57.65;28.48;;;;;;;;;;5013272;28;20049;-72
2022/12/19 02:52:39;;;;;;;62.97;30.65;;;;;;;;;;5047875;28;20041;-72
2022/12/19 02:55:12;;;;;;;65.60;30.67;;;;;;;;;;5051586;28;20106;-72
2022/12/19 02:57:44;;;;;;;55.75;29.20;;;;;;;;;;5048250;28;20052;-72
2022/12/19 03:00:10;;;;;;;60.25;30.45;;;;;;;;;;5045021;28;20051;-72
2022/12/19 03:02:42;;;;;;;61.95;30.02;;;;;;;;;;5044743;28;20049;-72
2022/12/19 03:05:13;;;;;;;60.28;30.65;;;;;;;;;;5042502;28;20041;-72
2022/12/19 03:08:03;;;;;;;65.20;30.98;;;;;;;;;;5045416;28;20491;-72
2022/12/19 03:10:34;;;;;;;69.63;32.58;;;;;;;;;;4991152;28;20054;-72
2022/12/19 03:13:35;;;;;;;62.47;29.27;;;;;;;;;;4991164;28;20054;-72
2022/12/19 03:16:01;;;;;;;71.32;31.63;;;;;;;;;;4990544;28;20057;-72
2022/12/19 03:18:28;;;;;;;67.13;30.60;;;;;;;;;;4990954;28;20079;-72
2022/12/19 03:21:04;;;;;;;80.05;33.08;;;;;;;;;;4987534;28;20058;-71
2022/12/19 03:23:31;;;;;;;72.32;32.97;;;;;;;;;;4983299;28;20449;-72
2022/12/19 03:26:05;;;;;;;71.90;33.28;;;;;;;;;;4990759;28;20046;-72
2022/12/19 03:28:51;;;;;;;71.65;31.92;;;;;;;;;;4989946;28;20050;-71
2022/12/19 03:31:19;;;;;;;72.07;32.28;;;;;;;;;;4959257;28;20129;-72
2022/12/19 03:33:46;;;;;;;75.90;31.92;;;;;;;;;;4991301;28;20054;-72
2022/12/19 03:36:15;;;;;;;74.65;32.85;;;;;;;;;;4974994;28;20505;-72
2022/12/19 03:38:43;;;;;;;79.63;33.70;;;;;;;;;;4990228;28;20121;-72
2022/12/19 03:41:10;;;;;;;74.57;31.20;;;;;;;;;;4991703;28;20065;-72
2022/12/19 03:43:37;;;;;;;73.03;32.58;;;;;;;;;;4990246;28;20053;-72
2022/12/19 03:46:03;;;;;;;77.43;33.38;;;;;;;;;;4976174;28;20046;-73
2022/12/19 03:48:29;;;;;;;84.07;34.95;;;;;;;;;;5048138;28;20057;-73
2022/12/19 03:51:05;;;;;;;89.80;35.40;;;;;;;;;;5051332;28;20179;-72
2022/12/19 03:53:50;;;;;;;80.25;34.45;;;;;;;;;;5049234;28;20395;-72
2022/12/19 03:56:25;;;;;;;90.38;34.55;;;;;;;;;;5031696;28;20537;-72
2022/12/19 03:58:55;;;;;;;90.47;36.58;;;;;;;;;;5051360;28;20048;-72
2022/12/19 04:01:22;;;;;;;93.60;36.10;;;;;;;;;;5032481;28;20469;-73
2022/12/19 04:03:49;;;;;;;85.18;34.53;;;;;;;;;;5050124;28;20048;-72
2022/12/19 04:06:15;;;;;;;90.75;35.55;;;;;;;;;;5051925;28;20056;-72
2022/12/19 04:08:42;;;;;;;96.75;36.58;;;;;;;;;;5051320;28;20038;-73
2022/12/19 04:11:13;;;;;;;83.30;34.78;;;;;;;;;;5052021;28;20049;-73
2022/12/19 04:13:44;;;;;;;91.75;36.80;;;;;;;;;;5049767;28;20045;-72
2022/12/19 04:16:13;;;;;;;116.97;38.90;;;;;;;;;;5049790;28;20049;-72
2022/12/19 04:18:41;;;;;;;83.80;32.65;;;;;;;;;;5051268;28;20044;-72
2022/12/19 04:21:23;;;;;;;98.75;36.72;;;;;;;;;;5031413;28;20045;-72
2022/12/19 04:23:52;;;;;;;86.50;35.35;;;;;;;;;;5049301;28;20388;-72
2022/12/19 04:26:19;;;;;;;90.85;35.70;;;;;;;;;;5052035;28;20052;-72
2022/12/19 04:28:48;;;;;;;90.43;36.15;;;;;;;;;;5051056;28;20040;-72
2022/12/19 04:31:14;;;;;;;93.32;36.45;;;;;;;;;;5045886;28;20526;-72
2022/12/19 04:33:41;;;;;;;88.32;33.97;;;;;;;;;;5049887;28;20116;-72
2022/12/19 04:36:07;;;;;;;98.82;37.10;;;;;;;;;;5050763;28;20056;-72
2022/12/19 04:38:33;;;;;;;96.20;38.78;;;;;;;;;;5050153;28;20037;-72
2022/12/19 04:40:59;;;;;;;95.38;37.15;;;;;;;;;;5051596;28;20033;-72
2022/12/19 04:43:25;;;;;;;104.60;37.65;;;;;;;;;;5052000;28;20118;-72
2022/12/19 04:45:51;;;;;;;87.53;35.80;;;;;;;;;;5035484;28;20041;-72
2022/12/19 04:48:17;;;;;;;87.82;36.92;;;;;;;;;;5049568;28;20107;-72
2022/12/19 04:50:44;;;;;;;90.30;37.33;;;;;;;;;;5048736;28;20049;-72
2022/12/19 04:53:10;;;;;;;85.10;36.80;;;;;;;;;;5049679;28;20459;-72
2022/12/19 04:55:36;;;;;;;84.47;34.53;;;;;;;;;;5047000;28;20079;-72
2022/12/19 04:58:04;;;;;;;85.78;35.42;;;;;;;;;;5042751;28;20091;-72
2022/12/19 05:00:30;;;;;;;92.40;36.55;;;;;;;;;;5042942;28;20053;-74
2022/12/19 05:02:56;;;;;;;88.72;36.72;;;;;;;;;;5046654;28;20474;-72
2022/12/19 05:05:22;;;;;;;91.60;38.15;;;;;;;;;;5044155;28;20040;-72
2022/12/19 05:07:48;;;;;;;88.78;35.35;;;;;;;;;;5047163;28;20107;-72
2022/12/19 05:10:14;;;;;;;84.40;35.92;;;;;;;;;;5046297;28;20049;-72
2022/12/19 05:12:40;;;;;;;88.80;36.28;;;;;;;;;;5046646;28;20430;-72
2022/12/19 05:15:07;;;;;;;88.55;36.95;;;;;;;;;;5049699;28;20041;-72
2022/12/19 05:17:33;;;;;;;97.45;37.75;;;;;;;;;;5055984;28;20045;-73
2022/12/19 05:19:59;;;;;;;86.43;37.25;;;;;;;;;;5055142;28;20048;-72
2022/12/19 05:22:25;;;;;;;99.38;37.58;;;;;;;;;;5037043;28;20120;-72
2022/12/19 05:24:51;;;;;;;100.40;39.47;;;;;;;;;;5036808;28;20090;-72
2022/12/19 05:27:17;;;;;;;88.88;35.40;;;;;;;;;;5054749;28;20037;-72
2022/12/19 05:29:43;;;;;;;85.50;34.47;;;;;;;;;;5055702;28;20048;-73
2022/12/19 05:32:09;;;;;;;105.68;38.50;;;;;;;;;;5055217;28;20041;-72
2022/12/19 05:34:35;;;;;;;104.47;39.00;;;;;;;;;;5052887;28;20057;-72
2022/12/19 05:37:02;;;;;;;103.88;38.72;;;;;;;;;;5054128;28;20055;-72
2022/12/19 05:39:28;;;;;;;112.18;39.63;;;;;;;;;;5053630;28;20558;-72
2022/12/19 05:41:54;;;;;;;116.30;40.47;;;;;;;;;;5054988;28;20040;-72
2022/12/19 05:44:20;;;;;;;105.68;39.75;;;;;;;;;;5055001;28;20044;-72
2022/12/19 05:46:46;;;;;;;125.55;41.53;;;;;;;;;;5050882;28;20041;-72
2022/12/19 05:49:13;;;;;;;129.68;43.28;;;;;;;;;;5052805;28;20442;-72
2022/12/19 05:51:39;;;;;;;112.97;39.88;;;;;;;;;;5033453;28;20044;-72
2022/12/19 05:54:05;;;;;;;113.68;39.85;;;;;;;;;;5054027;28;20045;-72
2022/12/19 05:56:31;;;;;;;107.03;37.08;;;;;;;;;;5053898;28;20037;-72
2022/12/19 05:58:57;;;;;;;119.60;41.10;;;;;;;;;;5049909;28;20056;-72
2022/12/19 06:01:24;;;;;;;112.18;41.00;;;;;;;;;;5043835;28;20053;-72
2022/12/19 06:03:51;;;;;;;105.82;41.20;;;;;;;;;;5046641;28;20490;-72
2022/12/19 06:06:18;;;;;;;109.00;38.33;;;;;;;;;;5050081;28;20041;-72
2022/12/19 06:08:44;;;;;;;105.68;39.30;;;;;;;;;;5052222;28;20044;-71
2022/12/19 06:11:12;;;;;;;103.43;37.80;;;;;;;;;;5053057;28;20041;-72
2022/12/19 06:13:39;;;;;;;105.78;39.05;;;;;;;;;;5019180;28;20049;-72
2022/12/19 06:16:09;;;;;;;97.93;37.15;;;;;;;;;;5051562;28;20068;-72
2022/12/19 06:18:35;;;;;;;78.80;33.77;;;;;;;;;;5052462;28;20049;-73
2022/12/19 06:21:02;;;;;;;89.07;35.45;;;;;;;;;;5051998;28;20080;-72
2022/12/19 06:23:30;;;;;;;95.15;37.03;;;;;;;;;;5053343;28;20048;-72
2022/12/19 06:25:56;;;;;;;86.78;35.67;;;;;;;;;;5052745;28;20399;-72
2022/12/19 06:28:23;;;;;;;87.93;37.72;;;;;;;;;;5053479;28;20052;-72
2022/12/19 06:30:49;;;;;;;95.13;38.47;;;;;;;;;;5052262;28;20049;-72
2022/12/19 06:33:15;;;;;;;89.55;37.28;;;;;;;;;;5050891;28;20058;-72
2022/12/19 06:35:41;;;;;;;94.65;37.25;;;;;;;;;;5052241;28;20037;-72
2022/12/19 06:38:07;;;;;;;87.30;36.40;;;;;;;;;;5051287;28;20084;-72
2022/12/19 06:43:18;;;;;;;91.28;36.05;;;;;;;;;;5052806;28;20446;-73
2022/12/19 06:45:44;;;;;;;91.30;37.33;;;;;;;;;;5052468;28;20067;-72
2022/12/19 06:48:10;;;;;;;97.57;37.47;;;;;;;;;;5049982;28;20616;-72
2022/12/19 06:50:36;;;;;;;88.70;34.55;;;;;;;;;;5045921;28;20102;-72
2022/12/19 06:53:02;;;;;;;85.63;35.10;;;;;;;;;;5046560;28;20049;-72
2022/12/19 06:55:28;;;;;;;80.40;33.45;;;;;;;;;;5035928;28;20055;-72
2022/12/19 06:57:54;;;;;;;75.90;32.85;;;;;;;;;;5046504;28;20060;-72
2022/12/19 07:00:20;;;;;;;75.28;33.13;;;;;;;;;;5044820;28;20041;-72
2022/12/19 07:02:50;;;;;;;72.93;31.08;;;;;;;;;;5047186;28;20056;-72
2022/12/19 07:05:16;;;;;;;68.25;30.40;;;;;;;;;;5044104;28;20048;-72
2022/12/19 07:07:42;;;;;;;67.10;29.75;;;;;;;;;;5043734;28;20061;-72
2022/12/19 07:10:08;;;;;;;56.83;28.15;;;;;;;;;;5043304;28;20057;-72
2022/12/19 07:12:34;;;;;;;59.88;28.20;;;;;;;;;;5043709;28;20048;-73
2022/12/19 07:15:01;;;;;;;58.42;28.33;;;;;;;;;;5042471;28;20041;-72
2022/12/19 07:17:28;;;;;;;56.05;29.50;;;;;;;;;;5044072;28;20038;-72
2022/12/19 07:19:55;;;;;;;54.97;28.67;;;;;;;;;;5034983;28;20041;-72
2022/12/19 07:22:22;;;;;;;59.20;29.20;;;;;;;;;;5051580;28;20084;-72
2022/12/19 07:24:48;;;;;;;61.50;29.60;;;;;;;;;;5050417;28;20059;-72
2022/12/19 07:27:14;;;;;;;60.78;29.85;;;;;;;;;;5051634;28;20052;-72
2022/12/19 07:29:40;;;;;;;63.55;29.38;;;;;;;;;;5053092;28;20446;-72
2022/12/19 07:32:06;;;;;;;63.17;29.35;;;;;;;;;;5053856;28;20045;-72
2022/12/19 07:34:32;;;;;;;66.82;30.85;;;;;;;;;;5033784;28;20048;-72
2022/12/19 07:36:58;;;;;;;78.15;32.42;;;;;;;;;;5043196;28;20107;-72
2022/12/19 07:39:24;;;;;;;64.55;30.42;;;;;;;;;;5050129;28;20052;-72
2022/12/19 07:41:50;;;;;;;63.67;29.38;;;;;;;;;;5046778;28;20033;-72
2022/12/19 07:44:16;;;;;;;65.15;30.48;;;;;;;;;;5050870;28;20048;-72
2022/12/19 07:46:43;;;;;;;55.47;26.95;;;;;;;;;;5034671;28;20120;-72
2022/12/19 07:49:09;;;;;;;63.55;28.92;;;;;;;;;;5034714;28;20049;-72
2022/12/19 07:51:35;;;;;;;54.95;26.83;;;;;;;;;;5050161;28;20047;-72
2022/12/19 07:54:02;;;;;;;58.75;28.38;;;;;;;;;;5048559;28;20048;-72
2022/12/19 07:56:28;;;;;;;56.17;26.98;;;;;;;;;;5042477;28;20525;-72
2022/12/19 07:58:54;;;;;;;53.05;27.17;;;;;;;;;;5021915;28;20123;-72
2022/12/19 08:01:20;;;;;;;57.35;26.77;;;;;;;;;;5046090;28;20042;-72
2022/12/19 08:03:46;;;;;;;53.28;25.95;;;;;;;;;;5033323;28;20513;-72
2022/12/19 08:06:12;;;;;;;53.28;27.02;;;;;;;;;;5033706;28;20049;-72
2022/12/19 08:08:39;;;;;;;54.30;24.80;;;;;;;;;;5045293;28;20447;-72
2022/12/19 08:11:09;;;;;;;45.47;23.75;;;;;;;;;;5033245;28;20049;-72
2022/12/19 08:13:36;;;;;;;48.10;24.98;;;;;;;;;;5052428;28;20044;-73
2022/12/19 08:16:02;;;;;;;48.95;23.88;;;;;;;;;;5051772;28;20049;-72
2022/12/19 08:18:28;;;;;;;53.60;26.05;;;;;;;;;;5051904;28;20049;-72
2022/12/19 08:20:54;;;;;;;49.40;24.25;;;;;;;;;;5051960;28;20466;-72
2022/12/19 08:23:20;;;;;;;45.25;23.13;;;;;;;;;;5033794;28;20048;-72
2022/12/19 08:25:46;;;;;;;44.60;23.10;;;;;;;;;;5050451;28;20060;-72
2022/12/19 08:28:12;;;;;;;49.50;23.65;;;;;;;;;;5051336;28;20053;-72
2022/12/19 08:30:39;;;;;;;49.25;25.00;;;;;;;;;;5014333;28;20044;-72
2022/12/19 08:33:05;;;;;;;51.50;25.45;;;;;;;;;;5051294;28;20091;-72
2022/12/19 08:35:31;;;;;;;55.13;25.42;;;;;;;;;;5051873;28;20048;-72
2022/12/19 08:37:58;;;;;;;47.15;22.65;;;;;;;;;;5050580;28;20052;-72
2022/12/19 08:40:24;;;;;;;46.53;23.38;;;;;;;;;;5054584;28;20041;-72
2022/12/19 08:42:50;;;;;;;47.97;23.38;;;;;;;;;;5055744;28;20080;-73
2022/12/19 08:45:17;;;;;;;43.63;21.23;;;;;;;;;;5036698;28;20095;-72
2022/12/19 08:47:44;;;;;;;42.08;22.10;;;;;;;;;;5055786;28;20187;-72
2022/12/19 08:50:11;;;;;;;44.83;22.08;;;;;;;;;;5051548;28;20041;-72
2022/12/19 08:52:37;;;;;;;38.95;21.33;;;;;;;;;;5054650;28;20491;-72
2022/12/19 08:55:03;;;;;;;30.33;19.10;;;;;;;;;;5054324;28;20056;-72
2022/12/19 08:57:29;;;;;;;38.63;20.45;;;;;;;;;;5055438;28;20036;-73
2022/12/19 08:59:55;;;;;;;41.65;22.20;;;;;;;;;;5048578;28;20057;-72
2022/12/19 09:02:23;;;;;;;41.85;22.25;;;;;;;;;;5053405;28;20529;-72
2022/12/19 09:04:49;;;;;;;40.65;21.80;;;;;;;;;;5055692;28;20083;-73
2022/12/19 09:07:15;;;;;;;36.72;19.90;;;;;;;;;;5055575;28;20403;-73
2022/12/19 09:09:41;;;;;;;42.92;23.38;;;;;;;;;;5053267;28;20693;-74
2022/12/19 09:12:07;;;;;;;40.20;22.13;;;;;;;;;;5049002;28;20052;-73
2022/12/19 09:14:34;;;;;;;40.15;21.67;;;;;;;;;;5053344;28;20056;-73
2022/12/19 09:17:00;;;;;;;38.53;21.38;;;;;;;;;;5048497;28;20044;-78
2022/12/19 09:19:26;;;;;;;46.00;25.75;;;;;;;;;;5050758;28;20076;-76
2022/12/19 09:21:52;;;;;;;44.20;24.90;;;;;;;;;;5047865;28;20049;-76
2022/12/19 09:24:18;;;;;;;44.78;23.52;;;;;;;;;;5036944;28;20041;-75
2022/12/19 09:26:44;;;;;;;44.17;24.67;;;;;;;;;;5055154;28;20045;-76
2022/12/19 09:29:10;;;;;;;49.72;26.05;;;;;;;;;;5053197;28;20461;-77
2022/12/19 09:31:37;;;;;;;48.45;26.17;;;;;;;;;;5038358;28;20071;-76
2022/12/19 09:34:03;;;;;;;45.85;24.38;;;;;;;;;;5054683;28;20044;-75
2022/12/19 09:36:29;;;;;;;48.92;25.20;;;;;;;;;;5054774;28;20052;-74
2022/12/19 09:38:57;;;;;;;47.15;26.30;;;;;;;;;;5034867;28;20098;-74
2022/12/19 09:41:32;;;;;;;53.45;29.10;;;;;;;;;;5051547;28;20436;-73
2022/12/19 09:44:04;;;;;;;48.47;25.88;;;;;;;;;;5053472;28;20048;-78
2022/12/19 09:46:49;;;;;;;53.35;27.17;;;;;;;;;;5036827;28;20118;-78
2022/12/19 09:49:20;;;;;;;52.40;25.05;;;;;;;;;;5053561;28;20045;-74
2022/12/19 09:51:52;;;;;;;52.33;26.83;;;;;;;;;;5049698;28;20049;-78
2022/12/19 09:54:24;;;;;;;50.97;25.92;;;;;;;;;;5049969;28;20048;-74
2022/12/19 09:56:52;;;;;;;45.97;24.83;;;;;;;;;;5052205;28;20057;-74
2022/12/19 09:59:21;;;;;;;46.40;25.73;;;;;;;;;;5052966;28;20522;-74
2022/12/19 10:02:10;;;;;;;45.90;23.73;;;;;;;;;;5051894;28;20049;-73
2022/12/19 10:04:37;;;;;;;48.80;25.23;;;;;;;;;;4960336;28;20623;-74
2022/12/19 10:07:03;;;;;;;41.92;26.02;;;;;;;;;;4960772;28;20062;-74
2022/12/19 10:09:32;;;;;;;51.05;27.35;;;;;;;;;;4955920;28;20117;-74
2022/12/19 10:12:05;;;;;;;48.45;25.27;;;;;;;;;;4965442;28;20047;-74
2022/12/19 10:14:51;;;;;;;45.13;24.85;;;;;;;;;;4968314;28;20043;-74
2022/12/19 10:17:29;;;;;;;43.38;24.15;;;;;;;;;;4965453;28;20046;-76
2022/12/19 10:20:14;;;;;;;48.45;24.17;;;;;;;;;;4960573;28;20047;-77
2022/12/19 10:22:42;;;;;;;43.90;22.42;;;;;;;;;;4956727;28;20051;-75
2022/12/19 10:25:15;;;;;;;35.72;22.55;;;;;;;;;;4951898;28;20051;-75
2022/12/19 10:27:58;;;;;;;41.88;21.25;;;;;;;;;;4950705;28;20498;-75
2022/12/19 10:30:25;;;;;;;38.22;22.20;;;;;;;;;;4956719;28;20079;-75
2022/12/19 10:33:02;;;;;;;36.90;22.42;;;;;;;;;;4954392;28;20051;-74
2022/12/19 10:35:33;;;;;;;38.22;21.92;;;;;;;;;;4972644;28;20070;-75
2022/12/19 10:37:59;;;;;;;38.08;20.30;;;;;;;;;;4946527;28;20061;-74
2022/12/19 10:40:30;;;;;;;34.95;20.83;;;;;;;;;;4970615;28;20039;-75
2022/12/19 10:43:06;;;;;;;37.90;21.77;;;;;;;;;;5049009;28;20143;-75
2022/12/19 10:45:36;;;;;;;32.95;20.42;;;;;;;;;;5052407;28;20076;-74
2022/12/19 10:48:03;;;;;;;33.33;19.55;;;;;;;;;;5034169;28;20116;-74
2022/12/19 10:50:30;;;;;;;38.75;19.38;;;;;;;;;;5032820;28;20486;-75
2022/12/19 10:53:12;;;;;;;31.02;17.73;;;;;;;;;;5045343;28;20040;-75
2022/12/19 10:55:51;;;;;;;33.63;19.50;;;;;;;;;;5051325;28;20052;-74
2022/12/19 10:58:25;;;;;;;30.70;18.77;;;;;;;;;;5045335;28;20041;-75
2022/12/19 11:00:57;;;;;;;30.30;19.63;;;;;;;;;;5050659;28;20045;-74
2022/12/19 11:03:23;;;;;;;32.20;17.98;;;;;;;;;;5049912;28;20528;-74
2022/12/19 11:05:50;;;;;;;32.55;17.67;;;;;;;;;;5050872;28;20068;-76
2022/12/19 11:08:19;;;;;;;25.02;16.25;;;;;;;;;;5033218;28;20059;-77
2022/12/19 11:11:05;;;;;;;29.00;17.50;;;;;;;;;;5030882;28;20142;-74
2022/12/19 11:13:34;;;;;;;31.67;16.70;;;;;;;;;;5039597;28;20045;-74
2022/12/19 11:16:02;;;;;;;29.10;16.50;;;;;;;;;;5049375;28;20045;-74
2022/12/19 11:18:35;;;;;;;29.50;17.50;;;;;;;;;;5051432;28;20045;-74
2022/12/19 11:21:17;;;;;;;28.85;17.90;;;;;;;;;;5050378;28;20041;-74
2022/12/19 11:23:50;;;;;;;33.75;17.52;;;;;;;;;;5048473;28;20076;-74
2022/12/19 11:26:28;;;;;;;30.85;16.83;;;;;;;;;;5050477;28;20107;-74
2022/12/19 11:28:56;;;;;;;29.35;17.02;;;;;;;;;;5049791;28;20492;-73
2022/12/19 11:31:23;;;;;;;30.15;18.00;;;;;;;;;;5051226;28;20045;-74
2022/12/19 11:34:02;;;;;;;24.52;16.35;;;;;;;;;;5051135;28;20049;-76
2022/12/19 11:36:39;;;;;;;29.08;17.75;;;;;;;;;;5051007;28;20053;-74
2022/12/19 11:39:08;;;;;;;33.30;18.58;;;;;;;;;;5044557;28;20090;-74
2022/12/19 11:42:00;;;;;;;41.63;17.75;;;;;;;;;;5050887;28;20041;-75
2022/12/19 11:44:34;;;;;;;36.05;17.42;;;;;;;;;;5040006;28;20107;-74
2022/12/19 11:47:08;;;;;;;29.45;17.90;;;;;;;;;;5051046;28;20045;-74
2022/12/19 11:49:38;;;;;;;36.10;18.85;;;;;;;;;;5042927;28;20049;-74
2022/12/19 11:52:14;;;;;;;37.35;17.48;;;;;;;;;;5050365;28;20037;-74
2022/12/19 11:54:50;;;;;;;28.42;18.45;;;;;;;;;;5050958;28;20498;-74
2022/12/19 11:57:16;;;;;;;25.05;16.85;;;;;;;;;;5029488;28;20048;-75
2022/12/19 11:59:42;;;;;;;25.92;17.25;;;;;;;;;;5047221;28;20044;-73
2022/12/19 12:02:08;;;;;;;27.92;17.27;;;;;;;;;;5030015;28;20064;-73
2022/12/19 12:04:53;;;;;;;29.10;18.08;;;;;;;;;;5050026;28;20049;-75
2022/12/19 12:07:19;;;;;;;28.92;17.58;;;;;;;;;;5045517;28;20124;-75
2022/12/19 12:09:56;;;;;;;28.38;17.15;;;;;;;;;;5049536;28;20048;-76
2022/12/19 12:12:24;;;;;;;26.55;16.63;;;;;;;;;;5046734;28;20049;-73
2022/12/19 12:14:53;;;;;;;27.95;17.58;;;;;;;;;;5048716;28;20037;-74
2022/12/19 12:17:19;;;;;;;27.23;16.38;;;;;;;;;;5051192;28;20045;-75
2022/12/19 12:19:56;;;;;;;24.88;17.13;;;;;;;;;;5048208;28;20049;-74
2022/12/19 12:22:45;;;;;;;31.92;16.67;;;;;;;;;;5048382;28;20059;-74
2022/12/19 12:25:27;;;;;;;26.13;16.27;;;;;;;;;;5045618;28;20045;-75
2022/12/19 12:28:12;;;;;;;30.45;17.48;;;;;;;;;;5049329;28;20083;-73
2022/12/19 12:30:43;;;;;;;25.30;16.80;;;;;;;;;;5042627;28;20564;-74
2022/12/19 12:33:26;;;;;;;27.33;16.48;;;;;;;;;;5051717;28;20343;-75
2022/12/19 12:35:56;;;;;;;23.23;15.48;;;;;;;;;;5030683;28;20052;-75
2022/12/19 12:38:25;;;;;;;21.65;15.52;;;;;;;;;;5051799;28;20041;-75
2022/12/19 12:41:08;;;;;;;23.52;15.65;;;;;;;;;;5051277;28;20041;-78
2022/12/19 12:43:40;;;;;;;23.35;15.45;;;;;;;;;;5047066;28;20045;-77
2022/12/19 12:46:11;;;;;;;22.02;15.25;;;;;;;;;;5049536;28;20491;-76
2022/12/19 12:48:41;;;;;;;32.08;15.15;;;;;;;;;;5051178;28;20049;-76
2022/12/19 12:51:08;;;;;;;31.92;15.90;;;;;;;;;;5038934;28;20732;-75
2022/12/19 12:53:35;;;;;;;20.95;14.50;;;;;;;;;;5041528;28;20518;-76
2022/12/19 12:56:03;;;;;;;26.58;15.63;;;;;;;;;;5048894;28;20386;-74
2022/12/19 12:58:41;;;;;;;29.67;15.68;;;;;;;;;;5051351;28;20080;-74
2022/12/19 13:01:17;;;;;;;22.30;14.73;;;;;;;;;;5050586;28;20045;-74
2022/12/19 13:03:51;;;;;;;36.33;16.17;;;;;;;;;;5049692;28;20513;-74
2022/12/19 13:06:37;;;;;;;35.42;22.30;;;;;;;;;;5042828;28;20081;-78
2022/12/19 13:09:03;;;;;;;28.80;17.52;;;;;;;;;;5041019;28;20049;-74
2022/12/19 13:14:33;;;;;;;26.58;15.23;;;;;;;;;;5047274;28;20056;-75
2022/12/19 13:16:59;;;;;;;29.33;14.68;;;;;;;;;;5047417;28;20045;-75
2022/12/19 13:19:35;;;;;;;25.65;19.52;;;;;;;;;;5033803;28;20049;-74
2022/12/19 13:22:06;;;;;;;23.17;14.98;;;;;;;;;;5043542;28;20049;-78
2022/12/19 13:24:48;;;;;;;22.67;14.63;;;;;;;;;;5043401;28;20499;-74
2022/12/19 13:27:21;;;;;;;20.38;14.95;;;;;;;;;;5051514;28;20053;-75
2022/12/19 13:29:59;;;;;;;28.95;14.32;;;;;;;;;;5054222;28;20057;-76
2022/12/19 13:32:45;;;;;;;26.95;15.55;;;;;;;;;;5052468;28;20052;-77
2022/12/19 13:35:17;;;;;;;18.90;13.48;;;;;;;;;;5040749;28;20119;-74
2022/12/19 13:37:45;;;;;;;25.80;14.45;;;;;;;;;;5051813;28;20509;-75
2022/12/19 13:40:14;;;;;;;19.92;13.70;;;;;;;;;;5051265;28;20091;-75
2022/12/19 13:45:39;;;;;;;24.00;13.15;;;;;;;;;;5052505;28;20049;-75
2022/12/19 13:48:09;;;;;;;20.08;14.13;;;;;;;;;;5049738;28;20091;-74
2022/12/19 13:50:37;;;;;;;19.83;12.57;;;;;;;;;;5037142;28;20461;-75
2022/12/19 13:53:17;;;;;;;21.08;12.40;;;;;;;;;;5041424;28;20048;-75
2022/12/19 13:55:43;;;;;;;19.00;12.43;;;;;;;;;;5039489;28;20121;-75
2022/12/19 13:58:20;;;;;;;19.63;13.05;;;;;;;;;;5048951;28;20072;-75
2022/12/19 14:00:46;;;;;;;20.90;11.95;;;;;;;;;;5030747;28;20048;-75
2022/12/19 14:03:16;;;;;;;22.88;12.25;;;;;;;;;;5050896;28;20067;-75
2022/12/19 14:05:43;;;;;;;20.67;11.95;;;;;;;;;;5046308;28;20053;-75
2022/12/19 14:08:09;;;;;;;19.48;11.90;;;;;;;;;;5053151;28;20090;-74
2022/12/19 14:10:39;;;;;;;19.95;11.80;;;;;;;;;;5051420;28;20048;-75
2022/12/19 14:15:52;;;;;;;22.27;11.90;;;;;;;;;;5049327;28;20045;-74
2022/12/19 14:18:21;;;;;;;16.38;11.15;;;;;;;;;;5047529;28;20495;-74
2022/12/19 14:21:06;;;;;;;27.83;12.50;;;;;;;;;;5040828;28;20380;-74
2022/12/19 14:23:32;;;;;;;22.77;11.38;;;;;;;;;;5054147;28;20398;-73
2022/12/19 14:25:58;;;;;;;17.38;11.23;;;;;;;;;;5045977;28;20053;-74
2022/12/19 14:28:34;;;;;;;17.85;11.70;;;;;;;;;;5051707;28;20119;-75
2022/12/19 14:31:03;;;;;;;18.80;10.63;;;;;;;;;;5048228;28;20045;-74
2022/12/19 14:33:35;;;;;;;20.60;10.88;;;;;;;;;;5033943;28;20071;-75
2022/12/19 14:36:01;;;;;;;14.40;10.45;;;;;;;;;;5053873;28;20053;-75
2022/12/19 14:38:32;;;;;;;19.63;10.30;;;;;;;;;;5053127;28;20047;-75
2022/12/19 14:40:58;;;;;;;17.23;10.38;;;;;;;;;;5052638;28;20049;-75
2022/12/19 14:43:38;;;;;;;19.55;10.60;;;;;;;;;;5049978;28;20064;-75